Time;durP1;ratioP1;P1;durP2;ratioP2;P2;SDS_P1;SDS_P2;PMS_P1;PMS_P2;Temp;Humidity;BMP_temperature;BMP_pressure;BME280_temperature;BME280_humidity;BME280_pressure;Samples;Min_cycle;Max_cycle;Signal;HPM_P1;HPM_P2
2023/07/02 04:01:51;;;;;;;;;;;17.30;99.90;;;;;;6730707;23;2331;-77
2023/07/02 04:04:53;;;;;;;;;;;17.30;99.90;;;;;;6175631;28;1098;-76
2023/07/02 04:07:54;;;;;;;;;;;17.30;99.90;;;;;;6176468;28;980;-76
2023/07/02 04:10:56;;;;;;;;;;;17.20;99.90;;;;;;6176419;28;1027;-76
2023/07/02 04:13:57;;;;;;;;;;;17.20;99.90;;;;;;6176054;28;1906;-79
2023/07/02 04:17:03;;;;;;;;;;;17.20;99.90;;;;;;6176014;28;1097;-77
2023/07/02 04:20:07;;;;;;;;;;;17.20;99.90;;;;;;6176224;28;1086;-78
2023/07/02 04:23:09;;;;;;;;;;;17.20;99.90;;;;;;6176505;28;1112;-76
2023/07/02 04:26:11;;;;;;;;;;;17.20;99.90;;;;;;6176179;28;1151;-74
2023/07/02 04:29:13;;;;;;;;;;;17.20;99.90;;;;;;6175293;28;1339;-77
2023/07/02 04:32:16;;;;;;;;;;;17.30;99.90;;;;;;6174591;28;1529;-77
2023/07/02 04:35:18;;;;;;;;;;;17.30;99.90;;;;;;6175500;28;1935;-75
2023/07/02 04:38:19;;;;;;;;;;;17.30;99.90;;;;;;6175454;28;1378;-78
2023/07/02 04:41:21;;;;;;;;;;;17.30;99.90;;;;;;6173793;28;1421;-78
2023/07/02 04:44:29;;;;;;;;;;;17.30;99.90;;;;;;6176043;28;1026;-75
2023/07/02 04:47:32;;;;;;;;;;;17.30;99.90;;;;;;6171119;28;2550;-78
2023/07/02 04:50:34;;;;;;;;;;;17.30;99.90;;;;;;6172860;28;2283;-79
2023/07/02 04:53:37;;;;;;;;;;;17.30;99.90;;;;;;6174335;28;2090;-78
2023/07/02 04:56:39;;;;;;;;;;;17.40;99.90;;;;;;6176904;28;1902;-75
2023/07/02 04:59:42;;;;;;;;;;;17.40;99.90;;;;;;6175959;28;1061;-78
2023/07/02 05:02:45;;;;;;;;;;;17.40;99.90;;;;;;6173278;28;1421;-76
2023/07/02 05:05:46;;;;;;;;;;;17.50;99.90;;;;;;6175758;28;2288;-77
2023/07/02 05:08:48;;;;;;;;;;;17.50;99.90;;;;;;6174494;28;1357;-79
2023/07/02 05:11:50;;;;;;;;;;;17.50;99.90;;;;;;6174155;28;1401;-76
2023/07/02 05:14:51;;;;;;;;;;;17.40;99.90;;;;;;6177199;28;1890;-78
2023/07/02 05:17:54;;;;;;;;;;;17.50;99.90;;;;;;6178271;28;1394;-76
2023/07/02 05:20:56;;;;;;;;;;;17.60;99.90;;;;;;6180169;28;1365;-75
2023/07/02 05:23:58;;;;;;;;;;;17.60;99.90;;;;;;6177532;28;1404;-76
2023/07/02 05:27:00;;;;;;;;;;;17.70;99.90;;;;;;6180284;28;1042;-76
2023/07/02 05:30:01;;;;;;;;;;;17.80;99.90;;;;;;6180207;28;1222;-74
2023/07/02 05:33:04;;;;;;;;;;;17.80;99.90;;;;;;6179777;28;1065;-77
2023/07/02 05:36:06;;;;;;;;;;;17.90;99.90;;;;;;6178579;28;1903;-75
2023/07/02 05:39:08;;;;;;;;;;;17.90;99.90;;;;;;6180307;28;1098;-79
2023/07/02 05:42:09;;;;;;;;;;;18.00;99.90;;;;;;6180261;28;1086;-80
2023/07/02 05:45:12;;;;;;;;;;;17.90;99.90;;;;;;6172965;28;2443;-80
2023/07/02 05:48:15;;;;;;;;;;;18.00;99.90;;;;;;6178718;28;1559;-78
2023/07/02 05:51:21;;;;;;;;;;;18.00;99.90;;;;;;6179677;28;1063;-78
2023/07/02 05:54:22;;;;;;;;;;;18.10;99.90;;;;;;6179273;28;1906;-76
2023/07/02 05:57:24;;;;;;;;;;;18.10;99.90;;;;;;6178050;28;1515;-76
2023/07/02 06:00:26;;;;;;;;;;;17.80;99.90;;;;;;6176651;28;2637;-76
2023/07/02 06:03:29;;;;;;;;;;;17.90;99.90;;;;;;6178736;28;1350;-73
2023/07/02 06:06:30;;;;;;;;;;;18.00;99.90;;;;;;6177655;28;1486;-78
2023/07/02 06:09:32;;;;;;;;;;;18.00;99.90;;;;;;6178315;28;1442;-77
2023/07/02 06:12:34;;;;;;;;;;;18.00;99.90;;;;;;6179694;28;1061;-76
2023/07/02 06:15:36;;;;;;;;;;;18.00;99.90;;;;;;6180660;28;1977;-76
2023/07/02 06:18:39;;;;;;;;;;;18.00;99.90;;;;;;6177630;28;2519;-76
2023/07/02 06:21:41;;;;;;;;;;;17.90;99.90;;;;;;6175453;28;1433;-77
2023/07/02 06:24:42;;;;;;;;;;;18.00;99.90;;;;;;6166909;28;2593;-77
2023/07/02 06:27:44;;;;;;;;;;;18.00;99.90;;;;;;6156734;28;1983;-79
2023/07/02 06:30:46;;;;;;;;;;;18.00;99.90;;;;;;6170170;28;2827;-77
2023/07/02 06:33:49;;;;;;;;;;;18.10;99.90;;;;;;6178586;28;1074;-76
2023/07/02 06:36:50;;;;;;;;;;;18.00;99.90;;;;;;6175893;28;1991;-75
2023/07/02 06:39:52;;;;;;;;;;;17.90;99.90;;;;;;6177831;28;1524;-76
2023/07/02 06:42:54;;;;;;;;;;;18.00;99.90;;;;;;6178443;28;3482;-79
2023/07/02 06:45:55;;;;;;;;;;;17.90;99.90;;;;;;6176539;28;1473;-79
2023/07/02 06:48:58;;;;;;;;;;;18.00;99.90;;;;;;6177999;28;1603;-77
2023/07/02 06:52:01;;;;;;;;;;;18.00;99.90;;;;;;6177215;28;1466;-75
2023/07/02 06:55:02;;;;;;;;;;;18.00;99.90;;;;;;6177030;28;1951;-75
2023/07/02 06:58:05;;;;;;;;;;;18.10;99.90;;;;;;6178116;28;1035;-78
2023/07/02 07:01:07;;;;;;;;;;;18.20;99.90;;;;;;6176923;28;1505;-77
2023/07/02 07:04:10;;;;;;;;;;;18.20;99.90;;;;;;6177958;28;1026;-79
2023/07/02 07:07:12;;;;;;;;;;;18.10;99.90;;;;;;6176930;28;1410;-78
2023/07/02 07:10:14;;;;;;;;;;;18.10;99.90;;;;;;6176393;28;1450;-76
2023/07/02 07:13:15;;;;;;;;;;;18.00;99.90;;;;;;6176455;28;1521;-77
2023/07/02 07:16:17;;;;;;;;;;;18.10;99.90;;;;;;6176666;28;1902;-78
2023/07/02 07:19:20;;;;;;;;;;;18.20;99.90;;;;;;6177886;28;1035;-79
2023/07/02 07:22:22;;;;;;;;;;;18.20;99.90;;;;;;6177802;28;1024;-78
2023/07/02 07:25:24;;;;;;;;;;;18.20;99.90;;;;;;6176620;28;1527;-78
2023/07/02 07:28:25;;;;;;;;;;;18.30;99.90;;;;;;6177385;28;1082;-77
2023/07/02 07:31:27;;;;;;;;;;;18.40;99.90;;;;;;6177455;28;1047;-76
2023/07/02 07:34:30;;;;;;;;;;;18.30;99.90;;;;;;6169244;28;2620;-78
2023/07/02 07:37:32;;;;;;;;;;;18.40;99.90;;;;;;6172988;28;1914;-78
2023/07/02 07:40:34;;;;;;;;;;;18.40;99.90;;;;;;6177007;28;2202;-76
2023/07/02 07:43:35;;;;;;;;;;;18.40;99.90;;;;;;6175257;28;1481;-77
2023/07/02 07:46:38;;;;;;;;;;;18.40;99.90;;;;;;6175563;28;1453;-78
2023/07/02 07:49:41;;;;;;;;;;;18.50;99.90;;;;;;6176285;28;1458;-77
2023/07/02 07:52:43;;;;;;;;;;;18.50;99.90;;;;;;6170014;28;2049;-76
2023/07/02 07:55:45;;;;;;;;;;;18.60;99.90;;;;;;6177148;28;1969;-77
2023/07/02 07:58:47;;;;;;;;;;;18.60;99.90;;;;;;6176873;28;1038;-76
2023/07/02 08:01:49;;;;;;;;;;;18.70;99.90;;;;;;6184987;28;1524;-79
2023/07/02 08:04:52;;;;;;;;;;;18.70;99.90;;;;;;6178343;28;1014;-78
2023/07/02 08:07:54;;;;;;;;;;;18.70;99.90;;;;;;6177063;28;998;-79
2023/07/02 08:10:56;;;;;;;;;;;18.80;99.90;;;;;;6175033;28;1465;-76
2023/07/02 08:13:59;;;;;;;;;;;18.90;99.90;;;;;;6176732;28;1094;-76
2023/07/02 08:17:00;;;;;;;;;;;18.90;99.90;;;;;;6176696;28;1977;-77
2023/07/02 08:20:09;;;;;;;;;;;19.00;99.90;;;;;;6177009;28;1861;-76
2023/07/02 08:23:11;;;;;;;;;;;19.00;98.80;;;;;;6163100;28;2248;-79
2023/07/02 08:26:14;;;;;;;;;;;19.00;99.60;;;;;;6160035;28;1461;-78
2023/07/02 08:29:16;;;;;;;;;;;19.00;98.60;;;;;;6176818;28;1081;-70
2023/07/02 08:32:18;;;;;;;;;;;19.20;99.90;;;;;;6169620;28;1536;-79
2023/07/02 08:35:21;;;;;;;;;;;19.10;97.40;;;;;;6174577;28;1981;-77
2023/07/02 08:38:22;;;;;;;;;;;19.20;98.20;;;;;;6172123;28;2426;-78
2023/07/02 08:41:24;;;;;;;;;;;19.20;97.50;;;;;;6174383;28;1575;-78
2023/07/02 08:44:27;;;;;;;;;;;19.30;97.50;;;;;;6176469;28;1462;-77
2023/07/02 08:47:30;;;;;;;;;;;19.30;97.20;;;;;;6172019;28;3149;-78
2023/07/02 08:50:33;;;;;;;;;;;19.30;96.90;;;;;;6167961;28;2882;-78
2023/07/02 08:53:35;;;;;;;;;;;19.30;97.10;;;;;;6181363;28;1077;-77
2023/07/02 08:56:37;;;;;;;;;;;19.30;96.50;;;;;;6164349;28;3307;-80
2023/07/02 08:59:40;;;;;;;;;;;19.30;96.30;;;;;;6179408;28;1813;-78
2023/07/02 09:02:41;;;;;;;;;;;19.40;96.20;;;;;;6178089;28;2356;-78
2023/07/02 09:05:52;;;;;;;;;;;19.50;95.70;;;;;;6174698;28;2910;-78
2023/07/02 09:08:54;;;;;;;;;;;19.70;95.20;;;;;;6174295;28;1727;-79
2023/07/02 09:11:55;;;;;;;;;;;19.70;94.40;;;;;;6172053;28;2673;-78
2023/07/02 09:14:58;;;;;;;;;;;19.70;93.90;;;;;;6175550;28;2824;-77
2023/07/02 09:18:00;;;;;;;;;;;19.70;93.70;;;;;;6180129;28;2197;-76
2023/07/02 09:21:03;;;;;;;;;;;19.90;93.60;;;;;;6180036;28;1837;-79
2023/07/02 09:24:13;;;;;;;;;;;19.90;93.40;;;;;;6180738;28;1809;-79
2023/07/02 09:27:15;;;;;;;;;;;19.90;93.20;;;;;;6174065;28;2995;-77
2023/07/02 09:30:17;;;;;;;;;;;19.90;93.60;;;;;;6164895;28;3341;-79
2023/07/02 09:33:18;;;;;;;;;;;20.00;93.70;;;;;;6177446;28;1975;-81
2023/07/02 09:36:21;;;;;;;;;;;20.10;93.00;;;;;;6179556;28;1895;-77
2023/07/02 09:39:27;;;;;;;;;;;20.20;93.60;;;;;;6180855;28;1030;-80
2023/07/02 09:42:29;;;;;;;;;;;20.40;93.00;;;;;;6178025;28;1746;-79
2023/07/02 09:45:31;;;;;;;;;;;20.40;93.80;;;;;;6181156;28;1032;-82
2023/07/02 09:48:34;;;;;;;;;;;20.50;92.70;;;;;;6172507;28;1791;-77
2023/07/02 09:51:38;;;;;;;;;;;20.60;91.90;;;;;;6178965;28;1703;-78
2023/07/02 09:54:40;;;;;;;;;;;20.70;91.40;;;;;;6179468;28;1024;-78
2023/07/02 09:57:44;;;;;;;;;;;20.80;91.60;;;;;;6175095;28;2812;-79
2023/07/02 10:00:46;;;;;;;;;;;20.90;91.00;;;;;;6164733;28;2879;-79
2023/07/02 10:03:47;;;;;;;;;;;20.90;90.00;;;;;;6173802;28;2547;-79
2023/07/02 10:06:52;;;;;;;;;;;20.90;90.00;;;;;;6163975;28;2644;-79
2023/07/02 10:09:54;;;;;;;;;;;21.10;90.10;;;;;;6177547;28;2759;-76
2023/07/02 10:12:55;;;;;;;;;;;21.20;89.80;;;;;;6178250;28;1802;-77
2023/07/02 10:16:02;;;;;;;;;;;21.30;90.00;;;;;;6177782;28;1938;-79
2023/07/02 10:19:10;;;;;;;;;;;21.40;88.60;;;;;;6175749;28;2529;-78
2023/07/02 10:22:13;;;;;;;;;;;21.50;88.20;;;;;;6174726;28;3241;-78
2023/07/02 10:25:25;;;;;;;;;;;21.60;88.00;;;;;;6178026;28;1516;-78
2023/07/02 10:28:27;;;;;;;;;;;21.60;88.20;;;;;;6166105;28;2538;-78
2023/07/02 10:31:29;;;;;;;;;;;21.70;89.50;;;;;;6174959;28;1810;-78
2023/07/02 10:34:31;;;;;;;;;;;21.70;86.20;;;;;;6178273;28;1606;-79
2023/07/02 10:37:37;;;;;;;;;;;21.60;85.90;;;;;;6177636;28;2293;-84
2023/07/02 10:40:39;;;;;;;;;;;21.80;87.50;;;;;;6177632;28;1739;-77
2023/07/02 10:43:41;;;;;;;;;;;21.80;85.20;;;;;;6178671;28;1051;-78
2023/07/02 10:46:46;;;;;;;;;;;21.70;85.20;;;;;;6176053;28;3306;-78
2023/07/02 10:49:47;;;;;;;;;;;21.70;81.00;;;;;;6172316;28;1625;-79
2023/07/02 10:52:51;;;;;;;;;;;21.70;78.90;;;;;;6176039;28;1482;-77
2023/07/02 10:55:55;;;;;;;;;;;21.50;78.60;;;;;;6175937;28;1906;-78
2023/07/02 10:58:56;;;;;;;;;;;21.70;79.30;;;;;;6160487;28;1473;-81
2023/07/02 11:02:01;;;;;;;;;;;21.90;79.50;;;;;;6151268;29;1105;-78
2023/07/02 11:05:04;;;;;;;;;;;21.90;79.70;;;;;;6166141;28;1507;-78
2023/07/02 11:08:10;;;;;;;;;;;22.00;79.40;;;;;;6162827;28;1585;-76
2023/07/02 11:11:12;;;;;;;;;;;22.10;79.00;;;;;;6155696;28;1278;-80
2023/07/02 11:14:13;;;;;;;;;;;22.10;77.30;;;;;;6153701;28;1774;-76
2023/07/02 11:17:15;;;;;;;;;;;22.10;76.20;;;;;;6172217;28;1910;-76
2023/07/02 11:20:17;;;;;;;;;;;22.20;77.30;;;;;;6174422;28;1083;-77
2023/07/02 11:23:21;;;;;;;;;;;22.40;76.50;;;;;;6174935;28;1038;-76
2023/07/02 11:26:23;;;;;;;;;;;22.50;77.00;;;;;;6173070;28;1723;-77
2023/07/02 11:29:25;;;;;;;;;;;22.50;75.00;;;;;;6174943;28;1089;-78
2023/07/02 11:32:26;;;;;;;;;;;22.60;76.20;;;;;;6175152;28;1092;-78
2023/07/02 11:35:35;;;;;;;;;;;22.70;75.30;;;;;;6173577;28;1686;-77
2023/07/02 11:38:38;;;;;;;;;;;22.70;75.80;;;;;;6175017;28;1926;-77
2023/07/02 11:41:41;;;;;;;;;;;22.90;75.40;;;;;;6170364;28;3049;-80
2023/07/02 11:44:42;;;;;;;;;;;22.80;73.90;;;;;;6175202;28;1775;-78
2023/07/02 11:47:44;;;;;;;;;;;22.90;74.00;;;;;;6177370;28;1038;-76
2023/07/02 11:50:46;;;;;;;;;;;23.00;75.10;;;;;;6175720;28;1505;-78
2023/07/02 11:53:49;;;;;;;;;;;23.10;72.90;;;;;;6177308;28;1477;-78
2023/07/02 11:56:50;;;;;;;;;;;23.20;70.90;;;;;;6162703;28;1898;-79
2023/07/02 11:59:53;;;;;;;;;;;23.20;70.70;;;;;;6155536;28;1260;-78
2023/07/02 12:02:54;;;;;;;;;;;23.40;71.30;;;;;;6174384;28;1604;-77
2023/07/02 12:05:56;;;;;;;;;;;23.50;72.60;;;;;;6176295;28;1798;-79
2023/07/02 12:08:59;;;;;;;;;;;23.70;72.30;;;;;;6175901;28;1790;-79
2023/07/02 12:12:01;;;;;;;;;;;23.80;67.50;;;;;;6175400;28;1754;-77
2023/07/02 12:15:03;;;;;;;;;;;23.70;69.50;;;;;;6176547;28;1051;-77
2023/07/02 12:18:04;;;;;;;;;;;23.80;69.30;;;;;;6176650;28;1906;-78
2023/07/02 12:21:06;;;;;;;;;;;23.90;69.00;;;;;;6175409;28;1798;-79
2023/07/02 12:24:10;;;;;;;;;;;24.00;67.80;;;;;;6177529;28;1964;-78
2023/07/02 12:27:12;;;;;;;;;;;24.10;65.10;;;;;;6182142;28;1027;-78
2023/07/02 12:30:17;;;;;;;;;;;24.00;66.10;;;;;;6180828;28;1672;-77
2023/07/02 12:33:18;;;;;;;;;;;24.20;65.30;;;;;;6181850;28;1105;-78
2023/07/02 12:36:20;;;;;;;;;;;24.10;64.90;;;;;;6180774;28;1894;-78
2023/07/02 12:39:23;;;;;;;;;;;24.00;63.80;;;;;;6181699;28;1088;-79
2023/07/02 12:42:25;;;;;;;;;;;24.00;64.40;;;;;;6181216;28;1746;-77
2023/07/02 12:45:27;;;;;;;;;;;24.10;63.10;;;;;;6181195;28;2010;-78
2023/07/02 12:48:28;;;;;;;;;;;23.90;63.90;;;;;;6181515;28;1094;-79
2023/07/02 12:51:30;;;;;;;;;;;24.10;64.60;;;;;;6180621;28;2051;-79
2023/07/02 12:54:33;;;;;;;;;;;24.20;63.30;;;;;;6181322;28;1144;-78
2023/07/02 12:57:35;;;;;;;;;;;24.30;63.60;;;;;;6181421;28;1906;-79
2023/07/02 13:00:37;;;;;;;;;;;24.20;61.60;;;;;;6177016;28;1739;-76
2023/07/02 13:03:38;;;;;;;;;;;24.20;60.70;;;;;;6180481;28;1754;-78
2023/07/02 13:06:40;;;;;;;;;;;24.30;60.40;;;;;;6181294;28;1073;-78
2023/07/02 13:09:44;;;;;;;;;;;24.10;60.30;;;;;;6180160;28;1813;-77
2023/07/02 13:12:45;;;;;;;;;;;24.00;60.00;;;;;;6179801;28;1817;-78
2023/07/02 13:15:47;;;;;;;;;;;24.10;60.50;;;;;;6181249;28;1110;-78
2023/07/02 13:18:49;;;;;;;;;;;24.30;60.50;;;;;;6180802;28;1910;-78
2023/07/02 13:21:50;;;;;;;;;;;24.40;61.10;;;;;;6179035;28;1667;-77
2023/07/02 13:24:53;;;;;;;;;;;24.50;60.80;;;;;;6179456;28;1826;-76
2023/07/02 13:27:55;;;;;;;;;;;24.30;60.60;;;;;;6180545;28;1083;-76
2023/07/02 13:30:57;;;;;;;;;;;24.40;60.30;;;;;;6179663;28;1759;-76
2023/07/02 13:33:58;;;;;;;;;;;24.50;60.80;;;;;;6180549;28;1138;-79
2023/07/02 13:37:02;;;;;;;;;;;24.70;59.20;;;;;;6179545;28;1903;-77
2023/07/02 13:40:12;;;;;;;;;;;24.70;58.30;;;;;;6179805;28;1794;-78
2023/07/02 13:43:14;;;;;;;;;;;24.80;58.10;;;;;;6166380;28;2570;-75
2023/07/02 13:46:15;;;;;;;;;;;25.20;58.50;;;;;;6156538;29;1104;-76
2023/07/02 13:49:17;;;;;;;;;;;25.50;58.10;;;;;;6155871;29;1286;-74
2023/07/02 13:52:19;;;;;;;;;;;25.70;56.90;;;;;;6173252;28;1747;-76
2023/07/02 13:55:27;;;;;;;;;;;25.60;56.00;;;;;;6177227;28;1902;-78
2023/07/02 13:58:46;;;;;;;;;;;25.60;55.90;;;;;;6179843;28;1903;-77
2023/07/02 14:01:49;;;;;;;;;;;25.90;56.90;;;;;;6178597;28;1786;-77
2023/07/02 14:04:51;;;;;;;;;;;26.20;55.70;;;;;;6179656;28;1762;-77
2023/07/02 14:07:53;;;;;;;;;;;26.20;55.60;;;;;;6180352;28;1071;-76
2023/07/02 14:10:54;;;;;;;;;;;26.00;54.70;;;;;;6178697;28;1809;-78
2023/07/02 14:13:56;;;;;;;;;;;26.10;55.60;;;;;;6175347;28;3209;-79
2023/07/02 14:16:59;;;;;;;;;;;26.30;54.70;;;;;;6156720;28;2953;-80
2023/07/02 14:20:01;;;;;;;;;;;26.20;54.50;;;;;;6175161;28;3052;-76
2023/07/02 14:23:03;;;;;;;;;;;26.20;55.00;;;;;;6183833;28;1698;-78
2023/07/02 14:26:05;;;;;;;;;;;26.50;55.50;;;;;;6179786;28;1026;-79
2023/07/02 14:29:06;;;;;;;;;;;26.50;54.50;;;;;;6179921;28;1054;-79
2023/07/02 14:32:09;;;;;;;;;;;26.40;54.90;;;;;;6177719;28;2381;-78
2023/07/02 14:35:11;;;;;;;;;;;26.30;55.30;;;;;;6179614;28;1137;-76
2023/07/02 14:38:13;;;;;;;;;;;26.00;54.80;;;;;;6178922;28;1898;-78
2023/07/02 14:41:14;;;;;;;;;;;26.20;55.40;;;;;;6184333;28;1750;-78
2023/07/02 14:44:16;;;;;;;;;;;26.10;54.80;;;;;;6179376;28;1090;-79
2023/07/02 14:47:21;;;;;;;;;;;26.00;55.20;;;;;;6178771;28;1034;-76
2023/07/02 14:50:22;;;;;;;;;;;26.20;55.50;;;;;;6175441;28;1774;-76
2023/07/02 14:53:25;;;;;;;;;;;26.50;55.60;;;;;;6177588;28;1739;-77
2023/07/02 14:56:27;;;;;;;;;;;26.50;55.20;;;;;;6178774;28;1068;-78
2023/07/02 14:59:28;;;;;;;;;;;26.70;53.60;;;;;;6177234;28;1987;-79
2023/07/02 15:02:31;;;;;;;;;;;26.50;53.70;;;;;;6176501;28;1711;-77
2023/07/02 15:05:33;;;;;;;;;;;26.30;54.30;;;;;;6177838;28;1091;-78
2023/07/02 15:08:35;;;;;;;;;;;26.30;55.60;;;;;;6175990;28;2946;-77
2023/07/02 15:11:36;;;;;;;;;;;26.60;55.00;;;;;;6176558;28;1401;-80
2023/07/02 15:14:38;;;;;;;;;;;26.80;55.20;;;;;;6172177;28;1833;-78
2023/07/02 15:17:41;;;;;;;;;;;26.90;54.90;;;;;;6161182;28;1907;-77
2023/07/02 15:20:44;;;;;;;;;;;26.70;55.40;;;;;;6175895;28;1730;-77
2023/07/02 15:23:46;;;;;;;;;;;26.60;56.30;;;;;;6177656;28;1155;-77
2023/07/02 15:26:48;;;;;;;;;;;26.50;56.00;;;;;;6173096;28;1977;-77
2023/07/02 15:29:50;;;;;;;;;;;26.30;56.10;;;;;;6175115;28;1786;-70
2023/07/02 15:32:53;;;;;;;;;;;26.20;56.50;;;;;;6177281;28;1098;-70
2023/07/02 15:35:54;;;;;;;;;;;26.70;56.40;;;;;;6176243;28;1763;-70
2023/07/02 15:38:57;;;;;;;;;;;26.90;56.60;;;;;;6168284;28;2981;-72
2023/07/02 15:41:59;;;;;;;;;;;26.60;57.20;;;;;;6153242;29;1098;-70
2023/07/02 15:45:01;;;;;;;;;;;26.90;56.50;;;;;;6155781;28;2811;-69
2023/07/02 15:48:05;;;;;;;;;;;27.10;56.00;;;;;;6153245;29;986;-71
2023/07/02 15:51:08;;;;;;;;;;;27.40;55.20;;;;;;6152958;28;1167;-71
2023/07/02 15:54:09;;;;;;;;;;;27.40;53.90;;;;;;6156908;28;2545;-78
2023/07/02 15:57:11;;;;;;;;;;;27.40;54.80;;;;;;6152970;28;1947;-78
2023/07/02 16:00:14;;;;;;;;;;;27.50;54.50;;;;;;6152957;28;1039;-77
2023/07/02 16:03:17;;;;;;;;;;;27.50;54.30;;;;;;6153866;28;1498;-78
2023/07/02 16:06:19;;;;;;;;;;;27.50;52.90;;;;;;6158410;28;1019;-76
2023/07/02 16:09:21;;;;;;;;;;;28.00;53.00;;;;;;6161536;28;1073;-77
2023/07/02 16:12:23;;;;;;;;;;;28.20;52.10;;;;;;6168541;28;1074;-77
2023/07/02 16:15:25;;;;;;;;;;;28.70;52.20;;;;;;6179467;28;2661;-77
2023/07/02 16:18:28;;;;;;;;;;;28.60;51.90;;;;;;6167734;28;2272;-75
2023/07/02 16:21:30;;;;;;;;;;;27.90;51.90;;;;;;6177082;28;1838;-77
2023/07/02 16:24:33;;;;;;;;;;;28.10;52.00;;;;;;6184760;28;1489;-79
2023/07/02 16:27:35;;;;;;;;;;;28.40;52.30;;;;;;6183312;28;1042;-77
2023/07/02 16:30:37;;;;;;;;;;;28.90;52.10;;;;;;6187333;28;1060;-75
2023/07/02 16:33:40;;;;;;;;;;;29.30;51.40;;;;;;6171619;28;2605;-78
2023/07/02 16:36:43;;;;;;;;;;;29.00;50.40;;;;;;6167008;28;2839;-79
2023/07/02 16:39:44;;;;;;;;;;;28.60;50.90;;;;;;6170432;28;3402;-79
2023/07/02 16:42:46;;;;;;;;;;;28.60;50.90;;;;;;6178012;28;1501;-79
2023/07/02 16:45:52;;;;;;;;;;;28.90;50.80;;;;;;6167526;28;3470;-78
2023/07/02 16:48:55;;;;;;;;;;;28.90;50.30;;;;;;6160158;28;1398;-78
2023/07/02 16:51:57;;;;;;;;;;;28.80;49.40;;;;;;6176844;28;3048;-77
2023/07/02 16:54:59;;;;;;;;;;;28.40;49.50;;;;;;6175460;28;1507;-80
2023/07/02 16:58:00;;;;;;;;;;;28.30;49.80;;;;;;6176362;28;1997;-77
2023/07/02 17:01:04;;;;;;;;;;;28.40;49.50;;;;;;6178229;28;1510;-79
2023/07/02 17:04:08;;;;;;;;;;;28.20;49.20;;;;;;6165943;28;3898;-78
2023/07/02 17:07:09;;;;;;;;;;;27.90;49.20;;;;;;6176416;28;2971;-79
2023/07/02 17:10:11;;;;;;;;;;;28.00;49.30;;;;;;6181816;28;3105;-79
2023/07/02 17:13:13;;;;;;;;;;;28.10;49.40;;;;;;6164475;28;1182;-77
2023/07/02 17:16:14;;;;;;;;;;;28.00;49.30;;;;;;6185200;28;1272;-78
2023/07/02 17:19:18;;;;;;;;;;;28.30;49.80;;;;;;6182745;28;2598;-78
2023/07/02 17:22:22;;;;;;;;;;;28.10;49.00;;;;;;6183502;28;1263;-78
2023/07/02 17:25:23;;;;;;;;;;;27.90;49.60;;;;;;6182000;28;1336;-78
2023/07/02 17:28:25;;;;;;;;;;;27.80;49.70;;;;;;6181021;28;1319;-79
2023/07/02 17:31:27;;;;;;;;;;;27.80;49.50;;;;;;6177020;28;2946;-79
2023/07/02 17:34:31;;;;;;;;;;;27.90;49.90;;;;;;6178951;28;2556;-77
2023/07/02 17:37:32;;;;;;;;;;;28.00;49.40;;;;;;6175612;28;1991;-79
2023/07/02 17:40:39;;;;;;;;;;;28.00;49.70;;;;;;6158624;29;2050;-78
2023/07/02 17:43:41;;;;;;;;;;;28.10;50.70;;;;;;6173261;28;1868;-77
2023/07/02 17:46:43;;;;;;;;;;;27.90;49.30;;;;;;6184746;28;1035;-77
2023/07/02 17:49:48;;;;;;;;;;;27.60;49.50;;;;;;6183434;28;2114;-77
2023/07/02 17:52:50;;;;;;;;;;;27.40;50.00;;;;;;6172663;28;1597;-77
2023/07/02 17:55:51;;;;;;;;;;;27.30;50.30;;;;;;6179953;28;1739;-79
2023/07/02 17:58:54;;;;;;;;;;;27.10;50.10;;;;;;6187918;28;1918;-83
2023/07/02 18:01:55;;;;;;;;;;;26.90;50.40;;;;;;6183117;28;2653;-79
2023/07/02 18:04:59;;;;;;;;;;;26.70;51.70;;;;;;6175072;28;1685;-77
2023/07/02 18:08:00;;;;;;;;;;;26.70;51.50;;;;;;6170087;28;3062;-80
2023/07/02 18:11:02;;;;;;;;;;;26.60;51.40;;;;;;6177820;28;1093;-79
2023/07/02 18:14:04;;;;;;;;;;;26.50;51.70;;;;;;6177720;28;1043;-78
2023/07/02 18:17:06;;;;;;;;;;;26.50;52.20;;;;;;6175532;28;1714;-78
2023/07/02 18:20:10;;;;;;;;;;;26.20;52.20;;;;;;6178086;28;1926;-79
2023/07/02 18:23:13;;;;;;;;;;;26.00;52.80;;;;;;6177442;28;1105;-77
2023/07/02 18:26:15;;;;;;;;;;;25.70;53.40;;;;;;6175948;28;1687;-78
2023/07/02 18:29:17;;;;;;;;;;;25.60;53.10;;;;;;6175459;28;1465;-78
2023/07/02 18:32:18;;;;;;;;;;;25.60;53.40;;;;;;6176805;28;1131;-79
2023/07/02 18:35:21;;;;;;;;;;;25.30;53.70;;;;;;6176524;28;1695;-73
2023/07/02 18:38:23;;;;;;;;;;;25.30;54.30;;;;;;6176914;28;1907;-72
2023/07/02 18:41:25;;;;;;;;;;;25.30;54.30;;;;;;6176779;28;786;-72
2023/07/02 18:44:33;;;;;;;;;;;25.20;54.70;;;;;;6175047;28;1817;-72
2023/07/02 18:47:35;;;;;;;;;;;25.00;55.20;;;;;;6174314;28;1675;-71
2023/07/02 18:50:40;;;;;;;;;;;25.00;55.60;;;;;;6174384;28;1806;-73
2023/07/02 18:53:42;;;;;;;;;;;24.80;56.70;;;;;;6175640;28;1091;-73
2023/07/02 18:56:43;;;;;;;;;;;24.70;57.50;;;;;;6174349;28;1620;-72
2023/07/02 18:59:48;;;;;;;;;;;24.60;57.20;;;;;;6174927;28;2011;-71
2023/07/02 19:02:50;;;;;;;;;;;24.60;57.80;;;;;;6172897;28;1715;-73
2023/07/02 19:05:53;;;;;;;;;;;24.50;58.10;;;;;;6174257;28;2159;-73
2023/07/02 19:08:54;;;;;;;;;;;24.50;59.20;;;;;;6175143;28;1075;-73
2023/07/02 19:11:56;;;;;;;;;;;24.40;59.00;;;;;;6174772;28;1080;-72
2023/07/02 19:14:58;;;;;;;;;;;24.40;59.30;;;;;;6174943;28;1039;-72
2023/07/02 19:18:01;;;;;;;;;;;24.40;60.00;;;;;;6172254;28;1719;-74
2023/07/02 19:21:07;;;;;;;;;;;24.20;60.30;;;;;;6168988;28;3146;-71
2023/07/02 19:24:10;;;;;;;;;;;24.20;60.80;;;;;;6165258;28;2773;-72
2023/07/02 19:27:14;;;;;;;;;;;24.10;61.50;;;;;;6171281;28;2190;-72
2023/07/02 19:30:16;;;;;;;;;;;24.00;62.10;;;;;;6171963;28;1374;-72
2023/07/02 19:33:17;;;;;;;;;;;23.90;62.30;;;;;;6171511;28;1829;-71
2023/07/02 19:36:20;;;;;;;;;;;23.90;62.50;;;;;;6172074;28;1774;-70
2023/07/02 19:39:22;;;;;;;;;;;23.80;63.00;;;;;;6170213;28;2255;-72
2023/07/02 19:42:24;;;;;;;;;;;23.80;63.70;;;;;;6167141;28;2005;-71
2023/07/02 19:45:26;;;;;;;;;;;23.70;63.70;;;;;;6171586;28;1405;-70
2023/07/02 19:48:28;;;;;;;;;;;23.60;64.30;;;;;;6172664;28;1468;-70
2023/07/02 19:51:31;;;;;;;;;;;23.30;64.60;;;;;;6172410;28;1552;-71
2023/07/02 19:54:33;;;;;;;;;;;23.30;65.60;;;;;;6172922;28;1481;-69
2023/07/02 19:57:34;;;;;;;;;;;23.20;67.70;;;;;;6173502;28;1644;-69
2023/07/02 20:00:38;;;;;;;;;;;23.20;65.90;;;;;;6171390;28;2410;-68
2023/07/02 20:03:42;;;;;;;;;;;23.10;66.10;;;;;;6163646;28;2104;-70
2023/07/02 20:06:45;;;;;;;;;;;23.00;66.60;;;;;;6173594;28;1422;-69
2023/07/02 20:09:47;;;;;;;;;;;23.00;66.70;;;;;;6168843;28;2422;-68
2023/07/02 20:12:51;;;;;;;;;;;23.00;67.10;;;;;;6172186;28;1415;-68
2023/07/02 20:15:56;;;;;;;;;;;23.00;66.80;;;;;;6175245;28;1974;-68
2023/07/02 20:18:57;;;;;;;;;;;22.90;67.10;;;;;;6176744;28;1985;-70
2023/07/02 20:22:00;;;;;;;;;;;22.90;66.40;;;;;;6176781;28;1042;-70
2023/07/02 20:25:02;;;;;;;;;;;22.90;66.10;;;;;;6165186;28;1529;-70
2023/07/02 20:28:05;;;;;;;;;;;22.90;67.30;;;;;;6174966;28;1445;-78
2023/07/02 20:31:06;;;;;;;;;;;22.90;67.50;;;;;;6176890;28;1027;-75
2023/07/02 20:34:08;;;;;;;;;;;22.70;64.40;;;;;;6176809;28;1371;-78
2023/07/02 20:37:12;;;;;;;;;;;22.60;65.00;;;;;;6177547;28;1113;-78
2023/07/02 20:40:14;;;;;;;;;;;22.50;65.40;;;;;;6177448;28;1902;-79
2023/07/02 20:43:16;;;;;;;;;;;22.50;65.30;;;;;;6176057;28;1417;-77
2023/07/02 20:46:22;;;;;;;;;;;22.40;64.90;;;;;;6179426;28;1026;-77
2023/07/02 20:49:24;;;;;;;;;;;22.30;65.60;;;;;;6181981;28;1004;-77
2023/07/02 20:52:27;;;;;;;;;;;22.30;66.10;;;;;;6182557;28;1025;-78
2023/07/02 20:55:29;;;;;;;;;;;22.20;65.30;;;;;;6179912;28;1620;-79
2023/07/02 20:58:30;;;;;;;;;;;22.20;65.60;;;;;;6181137;28;1128;-79
2023/07/02 21:01:33;;;;;;;;;;;22.10;65.60;;;;;;6180465;28;1969;-78
2023/07/02 21:04:35;;;;;;;;;;;22.10;65.90;;;;;;6179552;28;1405;-79
2023/07/02 21:07:38;;;;;;;;;;;22.10;66.50;;;;;;6179940;28;1398;-77
2023/07/02 21:10:40;;;;;;;;;;;22.10;66.80;;;;;;6180006;28;1413;-76
2023/07/02 21:13:43;;;;;;;;;;;21.90;67.20;;;;;;6179841;28;1514;-78
2023/07/02 21:16:48;;;;;;;;;;;21.80;66.90;;;;;;6180591;28;1054;-77
2023/07/02 21:19:50;;;;;;;;;;;21.70;66.70;;;;;;6161903;28;1987;-79
2023/07/02 21:22:53;;;;;;;;;;;21.60;67.50;;;;;;6172462;28;1405;-76
2023/07/02 21:25:56;;;;;;;;;;;21.60;67.10;;;;;;6171832;28;1535;-78
2023/07/02 21:28:57;;;;;;;;;;;21.40;67.40;;;;;;6175731;28;1481;-76
